Fairbanks, AK

8:27 AM AKDT on August 22, 2014 (GMT -0800)
AKDOT 14th Avenue @ Eielson Street | Change Station
CLOSE
Current Station
Personal Weather Station
Location: Fairbanks, AK
Elevation: 482 ft
Nearby Weather Stations

Elev 482 ft 64.84 °N, 147.71 °W | Updated 35 minutes ago

Scattered Clouds
Scattered Clouds
44 °F
Feels Like 44 °F
N
0
Wind Variable Wind from SE
Gusts 2.0 mph

Today
High -- | Low -- °F
--% Chance of Precip.
Yesterday
High -- | Low -- °F
Precip. -- in
6:00 AM 9:44 PM
Waning Crescent, 8% visible
Pressure 30.22 in
Visibility 13.0 miles
Clouds Few 7000 ft
Scattered Clouds 20000 ft
Windchill 44 °F
Dew Point 40 °F
Humidity 85%
Rainfall -999.00 in
Snow Depth Not available.
UV 0 out of 12
Pollen Not available.
Air Quality Not available.
Flu Activity Not available.
METAR PAFB 221555Z 00000KT 13SM FEW070 SCT200 06/04 A3021 RMK SLP233

More Conditions Fewer Conditions

Pressure 30.22 in
Visibility 13.0 miles
Clouds Few 7000 ft
Scattered Clouds 20000 ft
Windchill 44 °F
Dew Point 40 °F
Humidity 85%
Rainfall -999.00 in
Snow Depth Not available.
UV 0 out of 12
Pollen Not available.
Air Quality Not available.
Flu Activity Not available.
METAR PAFB 221555Z 00000KT 13SM FEW070 SCT200 06/04 A3021 RMK SLP233

More Conditions Fewer Conditions

10-Day Weather Forecast

Almanac

Astronomy

Aug. 22, 2014 Rise Set
Actual Time 6:00 AM AKDT 9:44 PM AKDT
Civil Twilight 4:58 AM AKDT 10:45 PM AKDT
Nautical Twilight 3:13 AM AKDT 12:26 AM AKDT
Astronomical Twilight Sun does not rise Sun does not rise
Moon 3:02 AM AKDT 8:16 PM AKDT
Length of Visible Light 17h 46m
Length of Day
15h 44m
Tomorrow will be 6m 48s shorter.
Waning Crescent, 8% of the Moon is Illuminated
Today
Waning Crescent
Aug 25
New
Sep 2
First Quarter
Sep 8
Full
Sep 15
Last Quarter

Today's Extremes

State Highs State Lows

Community

WunderPhotos

Upload Photos

1,746,194 photos uploaded!

Nearby

Snow Depth

Station Depth Elevation
Little Chena Ridge 1 in 2000 ft
Munson Ridge 1 in 3100 ft
Monument Creek 0 in 1850 ft
Eagle Summit 0 in 3650 ft
Upper Chena 1 in 2850 ft

Earthquake Activity

City Distance Mag. Time & Date
No recent earthquake activity has been reported nearby.
Minimum magnitude displayed is 2.5.

Coastal Water Temperatures

Place Temperature
No Stations Reporting

Nearby Weather Stations